createdAt,value
2022-10-23T00:01:29.067Z,67.27
2022-10-23T00:04:02.025Z,65.38
2022-10-23T00:06:30.348Z,67.04
2022-10-23T00:08:58.123Z,65.93
2022-10-23T00:11:28.539Z,65.74
2022-10-23T00:13:58.377Z,64.82
2022-10-23T00:16:26.801Z,66.72
2022-10-23T00:18:54.388Z,68.06
2022-10-23T00:21:22.033Z,70.14
2022-10-23T00:23:51.258Z,65.88
2022-10-23T00:26:18.838Z,67.21
2022-10-23T00:28:49.275Z,64.42
2022-10-23T00:31:17.904Z,63.84
2022-10-23T00:33:45.665Z,62.90
2022-10-23T00:36:14.842Z,62.42
2022-10-23T00:38:44.334Z,63.22
2022-10-23T00:41:38.036Z,62.31
2022-10-23T00:44:09.246Z,61.38
2022-10-23T00:46:38.075Z,61.21
2022-10-23T00:49:07.511Z,60.70
2022-10-23T00:51:45.310Z,60.61
2022-10-23T00:54:29.681Z,60.52
2022-10-23T00:56:59.597Z,62.17
2022-10-23T00:59:27.650Z,61.44
2022-10-23T01:01:55.463Z,61.03
2022-10-23T01:04:24.195Z,63.09
2022-10-23T01:07:22.265Z,61.48
2022-10-23T01:10:04.111Z,61.14
2022-10-23T01:12:45.802Z,62.11
2022-10-23T01:15:22.256Z,64.46
2022-10-23T01:18:04.523Z,62.24
2022-10-23T01:20:40.005Z,63.43
2022-10-23T01:23:11.544Z,63.31
2022-10-23T01:25:58.309Z,64.54
2022-10-23T01:28:30.812Z,62.41
2022-10-23T01:30:59.973Z,62.48
2022-10-23T01:33:39.544Z,62.48
2022-10-23T01:36:12.795Z,62.14
2022-10-23T01:38:45.963Z,62.39
2022-10-23T01:41:18.357Z,61.51
2022-10-23T01:43:53.678Z,61.63
2022-10-23T01:46:21.203Z,61.22
2022-10-23T01:48:52.948Z,61.51
2022-10-23T01:51:22.409Z,61.43
2022-10-23T01:53:51.245Z,61.24
2022-10-23T01:56:31.922Z,61.06
2022-10-23T01:59:03.958Z,61.08
2022-10-23T02:01:33.309Z,60.88
2022-10-23T02:04:03.684Z,61.08
2022-10-23T02:06:31.800Z,60.77
2022-10-23T02:08:59.279Z,60.63
2022-10-23T02:11:27.630Z,60.72
2022-10-23T02:14:24.706Z,60.72
2022-10-23T02:16:59.215Z,60.14
2022-10-23T02:19:50.941Z,59.78
2022-10-23T02:22:37.823Z,59.68
2022-10-23T02:25:11.627Z,60.45
2022-10-23T02:27:48.074Z,60.20
2022-10-23T02:30:18.090Z,60.34
2022-10-23T02:32:50.317Z,60.16
2022-10-23T02:35:19.904Z,60.14
2022-10-23T02:37:58.927Z,59.71
2022-10-23T02:40:32.284Z,59.55
2022-10-23T02:43:14.532Z,59.53
2022-10-23T02:46:02.767Z,59.97
2022-10-23T02:48:40.112Z,60.29
2022-10-23T02:51:15.333Z,60.17
2022-10-23T02:53:54.594Z,60.30
2022-10-23T02:56:36.654Z,60.33
2022-10-23T02:59:15.667Z,60.49
2022-10-23T03:01:52.115Z,60.41
2022-10-23T03:04:24.172Z,60.61
2022-10-23T03:06:51.848Z,60.43
2022-10-23T03:09:19.337Z,60.23
2022-10-23T03:11:47.021Z,60.62
2022-10-23T03:14:14.635Z,60.76
2022-10-23T03:16:42.049Z,60.85
2022-10-23T03:21:41.220Z,60.35
2022-10-23T03:24:09.186Z,60.23
2022-10-23T03:26:37.893Z,60.68
2022-10-23T03:29:05.587Z,60.61
2022-10-23T03:31:36.305Z,60.46
2022-10-23T03:34:09.986Z,60.26
2022-10-23T03:36:38.500Z,60.16
2022-10-23T03:39:06.370Z,60.26
2022-10-23T03:41:33.829Z,60.05
2022-10-23T03:44:01.351Z,59.88
2022-10-23T03:46:29.144Z,59.62
2022-10-23T03:48:59.645Z,59.56
2022-10-23T03:51:27.150Z,59.30
2022-10-23T03:53:55.006Z,59.27
2022-10-23T03:56:22.752Z,59.27
2022-10-23T03:58:50.182Z,59.66
2022-10-23T04:01:17.967Z,59.67
2022-10-23T04:03:45.748Z,59.14
2022-10-23T04:06:13.274Z,59.25
2022-10-23T04:08:43.272Z,59.14
2022-10-23T04:11:11.942Z,59.13
2022-10-23T04:13:40.391Z,59.37
2022-10-23T04:16:08.026Z,59.40
2022-10-23T04:18:35.740Z,60.23
2022-10-23T04:21:03.670Z,60.43
2022-10-23T04:23:31.092Z,60.04
2022-10-23T04:25:58.960Z,60.43
2022-10-23T04:28:26.847Z,60.19
2022-10-23T04:30:54.342Z,60.18
2022-10-23T04:33:22.162Z,59.83
2022-10-23T04:35:49.826Z,59.40
2022-10-23T04:38:17.423Z,59.09
2022-10-23T04:40:45.152Z,58.96
2022-10-23T04:43:12.790Z,58.48
2022-10-23T04:45:40.422Z,58.71
2022-10-23T04:48:09.473Z,58.90
2022-10-23T04:50:38.607Z,58.65
2022-10-23T04:53:06.120Z,59.37
2022-10-23T04:55:34.424Z,58.86
2022-10-23T04:58:04.670Z,58.28
2022-10-23T05:00:32.726Z,57.96
2022-10-23T05:03:01.402Z,57.70
2022-10-23T05:05:30.311Z,57.34
2022-10-23T05:07:57.861Z,57.11
2022-10-23T05:10:26.459Z,56.78
2022-10-23T05:12:54.490Z,56.93
2022-10-23T05:15:21.965Z,56.74
2022-10-23T05:17:54.187Z,56.95
2022-10-23T05:20:23.618Z,56.63
2022-10-23T05:22:52.624Z,57.27
2022-10-23T05:25:20.861Z,57.35
2022-10-23T05:27:48.645Z,58.01
2022-10-23T05:30:16.718Z,57.49
2022-10-23T05:32:44.721Z,57.33
2022-10-23T05:35:16.462Z,57.39
2022-10-23T05:37:48.283Z,57.43
2022-10-23T05:40:18.028Z,58.87
2022-10-23T05:42:48.658Z,59.00
2022-10-23T05:45:16.579Z,58.33
2022-10-23T05:47:45.247Z,58.15
2022-10-23T05:50:13.267Z,58.52
2022-10-23T05:52:47.503Z,58.42
2022-10-23T05:55:16.652Z,58.52
2022-10-23T05:57:45.092Z,58.71
2022-10-23T06:00:13.812Z,58.59
2022-10-23T06:02:41.414Z,58.88
2022-10-23T06:05:10.047Z,59.37
2022-10-23T06:07:39.361Z,59.47
2022-10-23T06:10:07.312Z,58.84
2022-10-23T06:12:35.095Z,59.07
2022-10-23T06:15:02.580Z,59.12
2022-10-23T06:17:31.979Z,58.79
2022-10-23T06:20:02.511Z,59.03
2022-10-23T06:22:30.802Z,59.68
2022-10-23T06:24:59.927Z,60.00
2022-10-23T06:27:27.952Z,59.72
2022-10-23T06:29:55.876Z,59.77
2022-10-23T06:32:23.275Z,60.15
2022-10-23T06:34:53.183Z,60.40
2022-10-23T06:37:21.651Z,60.71
2022-10-23T06:39:49.816Z,60.45
2022-10-23T06:42:17.602Z,60.18
2022-10-23T06:44:48.412Z,60.25
2022-10-23T06:49:54.662Z,60.42
2022-10-23T06:52:42.079Z,60.44
2022-10-23T06:55:11.371Z,60.51
2022-10-23T06:57:38.928Z,61.44
2022-10-23T07:00:07.241Z,61.16
2022-10-23T07:02:36.706Z,60.85
2022-10-23T07:05:06.757Z,60.93
2022-10-23T07:07:36.898Z,61.01
2022-10-23T07:10:05.261Z,61.28
2022-10-23T07:12:34.323Z,61.29
2022-10-23T07:15:05.538Z,61.48
2022-10-23T07:17:34.086Z,61.84
2022-10-23T07:20:01.636Z,62.35
2022-10-23T07:22:29.432Z,62.40
2022-10-23T07:25:00.960Z,62.93
2022-10-23T07:27:29.090Z,62.31
2022-10-23T07:29:56.714Z,62.85
2022-10-23T07:32:24.750Z,62.73
2022-10-23T07:34:55.294Z,61.96
2022-10-23T07:37:23.482Z,62.78
2022-10-23T07:39:51.317Z,63.52
2022-10-23T07:42:19.034Z,62.67
2022-10-23T07:44:46.747Z,61.88
2022-10-23T07:47:14.195Z,61.98
2022-10-23T07:49:42.738Z,62.37
2022-10-23T07:52:10.316Z,61.00
2022-10-23T07:54:38.907Z,61.33
2022-10-23T07:57:07.780Z,62.36
2022-10-23T07:59:37.900Z,62.65
2022-10-23T08:02:11.850Z,60.96
2022-10-23T08:04:40.118Z,61.31
2022-10-23T08:07:08.098Z,60.87
2022-10-23T08:09:38.081Z,60.33
2022-10-23T08:12:06.189Z,60.76
2022-10-23T08:14:33.718Z,59.74
2022-10-23T08:19:31.964Z,59.44
2022-10-23T08:21:59.525Z,58.63
2022-10-23T08:24:27.043Z,58.49
2022-10-23T08:26:54.829Z,58.21
2022-10-23T08:29:23.123Z,57.75
2022-10-23T08:31:53.727Z,57.26
2022-10-23T08:34:22.306Z,56.32
2022-10-23T08:36:50.533Z,55.93
2022-10-23T08:39:18.387Z,55.47
2022-10-23T08:41:51.581Z,56.41
2022-10-23T08:44:22.783Z,56.39
2022-10-23T08:47:02.936Z,55.97
2022-10-23T08:49:49.278Z,56.76
2022-10-23T08:52:30.376Z,57.08
2022-10-23T08:55:13.026Z,56.28
2022-10-23T08:57:47.432Z,57.08
2022-10-23T09:00:16.701Z,56.61
2022-10-23T09:02:50.842Z,57.02
2022-10-23T09:05:19.771Z,56.38
2022-10-23T09:08:12.907Z,56.33
2022-10-23T09:11:30.674Z,56.75
2022-10-23T09:14:26.756Z,56.29
2022-10-23T09:17:18.947Z,56.87
2022-10-23T09:19:46.802Z,56.23
2022-10-23T09:22:14.388Z,56.39
2022-10-23T09:24:44.880Z,57.50
2022-10-23T09:27:17.045Z,58.95
2022-10-23T09:29:53.770Z,57.32
2022-10-23T09:32:33.621Z,58.07
2022-10-23T09:35:01.149Z,56.54
2022-10-23T09:37:30.909Z,57.65
2022-10-23T09:40:19.200Z,57.55
2022-10-23T09:42:55.838Z,57.17
2022-10-23T09:45:26.047Z,56.40
2022-10-23T09:48:19.451Z,55.80
2022-10-23T09:51:01.323Z,55.92
2022-10-23T09:53:40.594Z,55.83
2022-10-23T09:56:25.604Z,56.88
2022-10-23T09:58:57.064Z,55.27
2022-10-23T10:01:30.703Z,56.40
2022-10-23T10:04:00.466Z,55.74
2022-10-23T10:06:30.505Z,56.57
2022-10-23T10:09:05.250Z,55.53
2022-10-23T10:11:39.228Z,56.19
2022-10-23T10:14:12.513Z,57.96
2022-10-23T10:16:58.466Z,56.08
2022-10-23T10:19:28.868Z,56.15
2022-10-23T10:22:09.609Z,58.16
2022-10-23T10:25:23.234Z,58.98
2022-10-23T10:28:13.716Z,58.67
2022-10-23T10:30:52.013Z,60.52
2022-10-23T10:33:30.810Z,59.78
2022-10-23T10:36:04.802Z,58.47
2022-10-23T10:38:50.526Z,59.53
2022-10-23T10:41:56.045Z,60.20
2022-10-23T10:44:32.691Z,60.84
2022-10-23T10:47:29.772Z,59.28
2022-10-23T10:50:19.647Z,57.52
2022-10-23T10:53:02.637Z,58.69
2022-10-23T10:55:34.352Z,59.28
2022-10-23T10:58:11.362Z,58.60
2022-10-23T11:00:39.134Z,57.67
2022-10-23T11:03:44.937Z,57.09
2022-10-23T11:06:16.172Z,58.53
2022-10-23T11:08:57.153Z,58.51
2022-10-23T11:11:35.341Z,58.34
2022-10-23T11:14:02.962Z,58.50
2022-10-23T11:16:40.074Z,59.00
2022-10-23T11:19:16.527Z,58.05
2022-10-23T11:22:05.286Z,59.90
2022-10-23T11:24:58.429Z,58.13
2022-10-23T11:27:32.247Z,58.28
2022-10-23T11:30:13.129Z,58.77
2022-10-23T11:32:59.695Z,58.58
2022-10-23T11:35:45.406Z,58.67
2022-10-23T11:38:13.003Z,58.50
2022-10-23T11:40:46.307Z,58.70
2022-10-23T11:43:14.147Z,59.45
2022-10-23T11:45:42.240Z,58.53
2022-10-23T11:48:35.725Z,59.21
2022-10-23T11:51:05.188Z,59.12
2022-10-23T11:53:32.762Z,57.39
2022-10-23T11:56:04.315Z,57.09
2022-10-23T11:58:42.518Z,56.91
2022-10-23T12:01:28.878Z,56.28
2022-10-23T12:04:14.311Z,55.68
2022-10-23T12:06:51.042Z,57.11
2022-10-23T12:09:43.398Z,56.50
2022-10-23T12:12:10.848Z,55.08
2022-10-23T12:14:39.869Z,56.27
2022-10-23T12:17:23.969Z,55.52
2022-10-23T12:20:15.985Z,56.27
2022-10-23T12:23:20.995Z,56.05
2022-10-23T12:26:12.651Z,56.41
2022-10-23T12:28:51.361Z,55.79
2022-10-23T12:31:48.808Z,54.60
2022-10-23T12:34:38.542Z,54.90
2022-10-23T12:37:21.571Z,55.66
2022-10-23T12:39:56.514Z,56.13
2022-10-23T12:42:24.825Z,55.27
2022-10-23T12:45:19.278Z,55.77
2022-10-23T12:47:47.637Z,54.55
2022-10-23T12:50:29.776Z,56.51
2022-10-23T12:53:05.995Z,55.40
2022-10-23T12:55:49.091Z,56.42
2022-10-23T12:58:24.497Z,54.75
2022-10-23T13:00:57.396Z,54.31
2022-10-23T13:03:26.498Z,54.71
2022-10-23T13:05:56.075Z,56.30
2022-10-23T13:08:23.742Z,56.21
2022-10-23T13:11:01.265Z,56.38
2022-10-23T13:13:29.244Z,56.18
2022-10-23T13:15:56.949Z,56.00
2022-10-23T13:18:24.798Z,56.55
2022-10-23T13:20:52.289Z,56.32
2022-10-23T13:23:28.845Z,56.73
2022-10-23T13:25:59.082Z,56.83
2022-10-23T13:28:41.232Z,57.62
2022-10-23T13:31:15.168Z,58.62
2022-10-23T13:33:51.015Z,57.49
2022-10-23T13:36:23.804Z,58.47
2022-10-23T13:39:03.830Z,57.94
2022-10-23T13:41:40.798Z,58.38
2022-10-23T13:44:11.548Z,58.78
2022-10-23T13:46:39.519Z,58.60
2022-10-23T13:49:07.154Z,59.71
2022-10-23T13:51:42.495Z,59.42
2022-10-23T13:54:15.653Z,58.93
2022-10-23T13:56:43.252Z,59.32
2022-10-23T13:59:12.548Z,59.50
2022-10-23T14:01:40.623Z,59.18
2022-10-23T14:04:09.423Z,59.66
2022-10-23T14:06:38.251Z,59.74
2022-10-23T14:09:07.227Z,59.75
2022-10-23T14:11:35.177Z,59.45
2022-10-23T14:14:02.769Z,59.81
2022-10-23T14:16:30.547Z,60.45
2022-10-23T14:18:58.576Z,62.36
2022-10-23T14:21:26.131Z,61.13
2022-10-23T14:23:54.158Z,60.86
2022-10-23T14:26:24.946Z,62.03
2022-10-23T14:28:55.837Z,61.80
2022-10-23T14:31:24.110Z,61.48
2022-10-23T14:33:55.970Z,61.64
2022-10-23T14:36:24.598Z,62.44
2022-10-23T14:38:57.678Z,61.46
2022-10-23T14:41:27.153Z,61.79
2022-10-23T14:43:54.848Z,61.78
2022-10-23T14:46:24.334Z,62.11
2022-10-23T14:48:54.955Z,62.26
2022-10-23T14:51:28.230Z,62.46
2022-10-23T14:53:59.566Z,63.00
2022-10-23T14:56:28.350Z,62.41
2022-10-23T14:59:02.663Z,62.52
2022-10-23T15:01:31.989Z,62.36
2022-10-23T15:04:00.918Z,62.81
2022-10-23T15:06:28.518Z,63.27
2022-10-23T15:08:56.023Z,63.83
2022-10-23T15:11:24.519Z,63.77
2022-10-23T15:13:52.927Z,63.62
2022-10-23T15:16:22.204Z,63.89
2022-10-23T15:18:50.065Z,63.48
2022-10-23T15:21:17.903Z,62.98
2022-10-23T15:23:46.327Z,63.28
2022-10-23T15:26:22.869Z,63.07
2022-10-23T15:28:58.900Z,62.34
2022-10-23T15:31:29.815Z,62.00
2022-10-23T15:33:57.902Z,62.00
2022-10-23T15:36:26.746Z,62.07
2022-10-23T15:38:54.988Z,62.03
2022-10-23T15:41:27.876Z,61.72
2022-10-23T15:43:55.908Z,61.35
2022-10-23T15:46:23.350Z,61.17
2022-10-23T15:48:51.374Z,61.02
2022-10-23T15:51:20.015Z,60.90
2022-10-23T15:53:47.481Z,60.82
2022-10-23T15:56:15.152Z,60.92
2022-10-23T15:58:43.285Z,61.47
2022-10-23T16:01:10.960Z,61.23
2022-10-23T16:03:39.188Z,61.21
2022-10-23T16:06:09.104Z,61.46
2022-10-23T16:08:37.286Z,61.96
2022-10-23T16:11:13.967Z,62.11
2022-10-23T16:13:42.896Z,61.18
2022-10-23T16:16:11.039Z,61.49
2022-10-23T16:18:38.825Z,61.91
2022-10-23T16:21:07.534Z,60.77
2022-10-23T16:23:35.389Z,61.67
2022-10-23T16:26:05.166Z,62.27
2022-10-23T16:28:33.219Z,60.89
2022-10-23T16:31:02.289Z,60.37
2022-10-23T16:33:29.794Z,59.80
2022-10-23T16:36:03.232Z,59.83
2022-10-23T16:38:32.053Z,60.69
2022-10-23T16:41:02.454Z,59.92
2022-10-23T16:43:35.522Z,59.41
2022-10-23T16:46:11.879Z,59.53
2022-10-23T16:48:39.637Z,59.77
2022-10-23T16:51:14.823Z,59.53
2022-10-23T16:53:44.503Z,59.40
2022-10-23T16:56:15.325Z,58.92
2022-10-23T16:58:43.536Z,58.88
2022-10-23T17:01:19.611Z,58.75
2022-10-23T17:03:49.686Z,58.67
2022-10-23T17:06:23.776Z,58.79
2022-10-23T17:08:51.941Z,58.70
2022-10-23T17:11:25.203Z,58.68
2022-10-23T17:13:58.670Z,58.81
2022-10-23T17:16:28.631Z,58.78
2022-10-23T17:18:57.487Z,58.75
2022-10-23T17:21:25.190Z,58.81
2022-10-23T17:23:52.964Z,58.63
2022-10-23T17:26:22.185Z,58.48
2022-10-23T17:28:50.044Z,58.49
2022-10-23T17:31:21.805Z,58.43
2022-10-23T17:33:52.197Z,58.40
2022-10-23T17:36:21.297Z,58.50
2022-10-23T17:38:49.565Z,58.41
2022-10-23T17:41:18.731Z,58.29
2022-10-23T17:43:46.760Z,58.43
2022-10-23T17:46:15.625Z,58.54
2022-10-23T17:48:43.700Z,58.44
2022-10-23T17:51:16.558Z,58.49
2022-10-23T17:53:47.199Z,58.44
2022-10-23T17:56:20.288Z,58.53
2022-10-23T17:58:53.172Z,58.42
2022-10-23T18:01:25.069Z,58.67
2022-10-23T18:03:54.356Z,58.63
2022-10-23T18:06:29.660Z,58.44
2022-10-23T18:08:59.730Z,58.69
2022-10-23T18:11:29.877Z,58.65
2022-10-23T18:16:28.191Z,58.56
2022-10-23T18:18:56.270Z,58.73
2022-10-23T18:21:24.955Z,58.71
2022-10-23T18:23:52.818Z,59.54
2022-10-23T18:26:23.514Z,59.32
2022-10-23T18:28:53.503Z,59.62
2022-10-23T18:31:21.224Z,59.39
2022-10-23T18:33:48.906Z,59.39
2022-10-23T18:36:20.709Z,59.19
2022-10-23T18:38:49.810Z,59.32
2022-10-23T18:41:19.026Z,59.30
2022-10-23T18:43:46.665Z,59.06
2022-10-23T18:46:14.632Z,59.49
2022-10-23T18:48:43.572Z,59.44
2022-10-23T18:51:19.949Z,59.36
2022-10-23T18:53:51.318Z,59.95
2022-10-23T18:56:22.962Z,59.67
2022-10-23T18:58:55.127Z,59.63
2022-10-23T19:01:24.879Z,60.26
2022-10-23T19:03:53.599Z,60.33
2022-10-23T19:06:22.371Z,60.41
2022-10-23T19:08:50.334Z,60.29
2022-10-23T19:11:20.495Z,60.40
2022-10-23T19:13:48.309Z,60.24
2022-10-23T19:16:47.103Z,60.26
2022-10-23T19:19:26.767Z,60.32
2022-10-23T19:21:54.849Z,60.18
2022-10-23T19:24:34.414Z,60.15
2022-10-23T19:27:02.721Z,61.40
2022-10-23T19:29:30.887Z,61.31
2022-10-23T19:31:58.623Z,61.37
2022-10-23T19:34:26.530Z,60.80
2022-10-23T19:36:55.284Z,60.53
2022-10-23T19:39:23.291Z,60.62
2022-10-23T19:41:51.715Z,60.64
2022-10-23T19:44:20.627Z,61.14
2022-10-23T19:46:48.798Z,61.74
2022-10-23T19:49:17.257Z,61.38
2022-10-23T19:51:50.934Z,62.01
2022-10-23T19:54:20.432Z,61.34
2022-10-23T19:56:48.689Z,60.95
2022-10-23T19:59:16.595Z,60.78
2022-10-23T20:01:47.760Z,60.83
2022-10-23T20:04:18.331Z,61.17
2022-10-23T20:06:46.663Z,61.27
2022-10-23T20:09:14.342Z,61.62
2022-10-23T20:11:43.492Z,61.62
2022-10-23T20:14:11.709Z,61.85
2022-10-23T20:16:39.869Z,61.99
2022-10-23T20:19:09.628Z,61.68
2022-10-23T20:21:38.776Z,62.55
2022-10-23T20:24:06.895Z,63.67
2022-10-23T20:26:34.965Z,63.47
2022-10-23T20:29:02.584Z,63.32
2022-10-23T20:31:30.269Z,63.44
2022-10-23T20:33:58.156Z,63.75
2022-10-23T20:36:27.409Z,64.30
2022-10-23T20:38:55.695Z,65.10
2022-10-23T20:41:25.038Z,65.14
2022-10-23T20:43:53.002Z,64.13
2022-10-23T20:46:20.615Z,63.77
2022-10-23T20:48:48.643Z,63.60
2022-10-23T20:51:18.347Z,64.77
2022-10-23T20:53:46.192Z,65.22
2022-10-23T20:56:33.825Z,65.60
2022-10-23T20:59:04.571Z,65.92
2022-10-23T21:01:33.429Z,66.28
2022-10-23T21:04:02.659Z,66.62
2022-10-23T21:06:51.502Z,65.76
2022-10-23T21:09:20.337Z,64.88
2022-10-23T21:11:47.790Z,64.04
2022-10-23T21:14:15.246Z,63.83
2022-10-23T21:16:44.622Z,63.93
2022-10-23T21:19:14.679Z,63.38
2022-10-23T21:21:42.722Z,63.03
2022-10-23T21:24:14.058Z,62.60
2022-10-23T21:26:41.739Z,62.82
2022-10-23T21:29:25.015Z,63.28
2022-10-23T21:31:57.976Z,62.99
2022-10-23T21:34:26.256Z,63.01
2022-10-23T21:37:11.905Z,63.16
2022-10-23T21:39:41.755Z,63.67
2022-10-23T21:42:10.291Z,65.18
2022-10-23T21:44:37.733Z,64.88
2022-10-23T21:47:05.513Z,64.41
2022-10-23T21:49:33.268Z,64.04
2022-10-23T21:52:00.744Z,63.91
2022-10-23T21:54:28.222Z,63.85
2022-10-23T21:56:56.022Z,64.40
2022-10-23T21:59:27.596Z,64.24
2022-10-23T22:01:57.877Z,64.27
2022-10-23T22:04:25.940Z,64.24
2022-10-23T22:06:53.665Z,65.40
2022-10-23T22:09:22.046Z,65.72
2022-10-23T22:11:50.874Z,64.87
2022-10-23T22:14:18.406Z,63.89
2022-10-23T22:16:46.656Z,63.49
2022-10-23T22:19:16.299Z,63.36
2022-10-23T22:21:44.126Z,63.12
2022-10-23T22:24:11.840Z,62.90
2022-10-23T22:26:42.588Z,62.65
2022-10-23T22:29:22.576Z,62.58
2022-10-23T22:31:50.610Z,62.47
2022-10-23T22:34:48.313Z,62.34
2022-10-23T22:37:14.481Z,63.14
2022-10-23T22:39:42.257Z,63.75
2022-10-23T22:42:09.808Z,62.98
2022-10-23T22:44:37.584Z,63.49
2022-10-23T22:47:05.140Z,63.74
2022-10-23T22:49:32.629Z,63.55
2022-10-23T22:52:00.340Z,63.73
2022-10-23T22:54:27.877Z,64.52
2022-10-23T22:56:55.294Z,64.05
2022-10-23T22:59:22.965Z,63.79
2022-10-23T23:01:50.531Z,63.75
2022-10-23T23:07:07.875Z,66.18
2022-10-23T23:09:40.137Z,66.14
2022-10-23T23:12:09.010Z,65.74
2022-10-23T23:14:36.869Z,65.74
2022-10-23T23:17:05.017Z,65.95
2022-10-23T23:19:33.043Z,65.97
2022-10-23T23:22:01.081Z,65.00
2022-10-23T23:24:28.644Z,64.61
2022-10-23T23:26:56.319Z,64.21
2022-10-23T23:29:23.792Z,63.89
2022-10-23T23:31:51.368Z,63.93
2022-10-23T23:34:20.068Z,64.20
2022-10-23T23:36:47.547Z,64.33
2022-10-23T23:39:14.980Z,64.21
2022-10-23T23:41:42.812Z,64.54
2022-10-23T23:44:10.367Z,64.59
2022-10-23T23:46:38.189Z,65.18
2022-10-23T23:49:05.907Z,65.26
2022-10-23T23:51:33.399Z,66.62
2022-10-23T23:54:00.878Z,66.59
2022-10-23T23:56:28.655Z,66.18
2022-10-23T23:58:57.708Z,67.35
